createdAt,value
2022-10-02T00:02:04.935Z,19.83
2022-10-02T00:04:42.931Z,20.17
2022-10-02T00:07:13.298Z,20.07
2022-10-02T00:09:47.510Z,19.07
2022-10-02T00:12:20.834Z,19.03
2022-10-02T00:14:53.421Z,21.13
2022-10-02T00:17:25.698Z,18.80
2022-10-02T00:19:55.159Z,18.53
2022-10-02T00:22:36.681Z,18.70
2022-10-02T00:25:11.330Z,21.40
2022-10-02T00:27:55.695Z,17.97
2022-10-02T00:30:23.907Z,20.07
2022-10-02T00:33:02.773Z,19.67
2022-10-02T00:35:53.569Z,21.38
2022-10-02T00:38:31.745Z,15.30
2022-10-02T00:41:18.527Z,18.40
2022-10-02T00:44:01.397Z,13.87
2022-10-02T00:46:42.842Z,17.87
2022-10-02T00:49:29.339Z,17.50
2022-10-02T00:52:06.617Z,15.13
2022-10-02T00:54:59.416Z,18.63
2022-10-02T00:57:39.277Z,17.60
2022-10-02T01:00:12.694Z,18.00
2022-10-02T01:03:03.348Z,18.03
2022-10-02T01:05:32.536Z,17.17
2022-10-02T01:08:01.081Z,18.97
2022-10-02T01:10:30.908Z,16.67
2022-10-02T01:12:59.722Z,16.23
2022-10-02T01:15:33.399Z,20.07
2022-10-02T01:18:03.314Z,16.87
2022-10-02T01:20:37.213Z,18.03
2022-10-02T01:23:15.076Z,17.03
2022-10-02T01:25:45.108Z,16.77
2022-10-02T01:28:13.824Z,15.50
2022-10-02T01:30:45.714Z,17.03
2022-10-02T01:33:16.440Z,18.17
2022-10-02T01:35:45.124Z,16.67
2022-10-02T01:38:15.623Z,20.80
2022-10-02T01:40:45.599Z,18.90
2022-10-02T01:43:17.616Z,17.70
2022-10-02T01:45:53.789Z,17.80
2022-10-02T01:48:35.928Z,17.33
2022-10-02T01:51:16.823Z,19.33
2022-10-02T01:53:50.672Z,18.93
2022-10-02T01:56:28.648Z,19.60
2022-10-02T01:59:05.700Z,17.20
2022-10-02T02:01:43.835Z,17.40
2022-10-02T02:04:22.917Z,19.60
2022-10-02T02:06:58.437Z,23.37
2022-10-02T02:09:34.784Z,19.57
2022-10-02T02:12:11.076Z,18.83
2022-10-02T02:14:44.944Z,18.43
2022-10-02T02:17:18.525Z,20.10
2022-10-02T02:19:50.271Z,22.00
2022-10-02T02:22:23.487Z,19.33
2022-10-02T02:24:57.060Z,20.87
2022-10-02T02:27:31.034Z,21.30
2022-10-02T02:30:09.577Z,21.23
2022-10-02T02:32:40.970Z,21.47
2022-10-02T02:35:14.217Z,19.73
2022-10-02T02:37:46.148Z,19.50
2022-10-02T02:40:18.925Z,20.50
2022-10-02T02:42:56.031Z,21.57
2022-10-02T02:45:28.643Z,22.37
2022-10-02T02:48:01.389Z,19.83
2022-10-02T02:50:33.975Z,24.37
2022-10-02T02:53:09.513Z,26.53
2022-10-02T02:55:45.152Z,23.67
2022-10-02T02:58:19.006Z,23.13
2022-10-02T03:00:47.345Z,25.43
2022-10-02T03:03:15.739Z,24.33
2022-10-02T03:05:48.067Z,24.67
2022-10-02T03:08:23.608Z,21.23
2022-10-02T03:11:01.794Z,21.93
2022-10-02T03:13:43.240Z,27.43
2022-10-02T03:16:21.768Z,23.77
2022-10-02T03:19:01.366Z,22.93
2022-10-02T03:21:36.524Z,25.20
2022-10-02T03:24:12.715Z,23.93
2022-10-02T03:26:45.659Z,21.97
2022-10-02T03:29:19.415Z,28.80
2022-10-02T03:31:48.942Z,22.83
2022-10-02T03:34:18.380Z,22.10
2022-10-02T03:36:47.975Z,23.93
2022-10-02T03:39:25.659Z,27.00
2022-10-02T03:41:54.859Z,22.57
2022-10-02T03:44:24.651Z,26.97
2022-10-02T03:46:53.270Z,23.37
2022-10-02T03:49:21.485Z,29.03
2022-10-02T03:51:49.635Z,23.27
2022-10-02T03:54:19.646Z,23.50
2022-10-02T03:56:54.399Z,25.23
2022-10-02T03:59:34.382Z,24.37
2022-10-02T04:02:07.424Z,25.67
2022-10-02T04:04:43.554Z,22.20
2022-10-02T04:07:17.678Z,23.47
2022-10-02T04:09:52.595Z,23.87
2022-10-02T04:12:27.048Z,23.80
2022-10-02T04:15:02.226Z,22.40
2022-10-02T04:17:38.556Z,21.23
2022-10-02T04:20:14.305Z,23.60
2022-10-02T04:22:47.701Z,24.03
2022-10-02T04:25:19.290Z,20.60
2022-10-02T04:27:52.380Z,25.17
2022-10-02T04:30:22.472Z,26.00
2022-10-02T04:32:51.512Z,25.47
2022-10-02T04:35:30.542Z,23.23
2022-10-02T04:38:19.321Z,24.93
2022-10-02T04:41:02.457Z,24.77
2022-10-02T04:43:45.228Z,23.90
2022-10-02T04:46:27.559Z,30.97
2022-10-02T04:49:22.062Z,25.43
2022-10-02T04:52:06.462Z,24.10
2022-10-02T04:54:48.117Z,28.60
2022-10-02T04:57:29.310Z,30.30
2022-10-02T05:00:09.562Z,22.50
2022-10-02T05:02:58.646Z,23.43
2022-10-02T05:05:39.470Z,25.33
2022-10-02T05:08:33.402Z,26.53
2022-10-02T05:11:12.161Z,24.50
2022-10-02T05:13:57.906Z,23.77
2022-10-02T05:16:43.805Z,26.27
2022-10-02T05:19:43.881Z,25.07
2022-10-02T05:22:24.258Z,23.77
2022-10-02T05:25:04.552Z,24.20
2022-10-02T05:27:51.423Z,23.30
2022-10-02T05:30:20.723Z,26.23
2022-10-02T05:33:28.319Z,22.83
2022-10-02T05:36:17.330Z,22.03
2022-10-02T05:38:58.324Z,23.03
2022-10-02T05:41:33.684Z,24.57
2022-10-02T05:44:07.401Z,23.33
2022-10-02T05:46:43.161Z,22.27
2022-10-02T05:49:17.727Z,21.20
2022-10-02T05:51:53.706Z,19.77
2022-10-02T05:54:35.731Z,22.17
2022-10-02T05:57:09.802Z,27.03
2022-10-02T05:59:45.054Z,25.50
2022-10-02T06:02:21.418Z,23.37
2022-10-02T06:04:58.620Z,24.50
2022-10-02T06:07:29.357Z,21.73
2022-10-02T06:10:04.228Z,22.70
2022-10-02T06:12:38.579Z,24.33
2022-10-02T06:15:13.132Z,22.03
2022-10-02T06:17:47.357Z,20.70
2022-10-02T06:20:20.889Z,23.07
2022-10-02T06:22:55.109Z,22.13
2022-10-02T06:25:28.889Z,22.60
2022-10-02T06:28:00.992Z,20.00
2022-10-02T06:30:32.361Z,22.17
2022-10-02T06:33:05.730Z,21.20
2022-10-02T06:35:51.525Z,19.40
2022-10-02T06:38:35.587Z,17.23
2022-10-02T06:41:10.664Z,13.17
2022-10-02T06:43:55.058Z,14.60
2022-10-02T06:46:31.272Z,16.13
2022-10-02T06:49:05.685Z,16.73
2022-10-02T06:51:46.550Z,12.50
2022-10-02T06:54:34.073Z,16.20
2022-10-02T06:57:20.295Z,14.87
2022-10-02T07:00:04.421Z,15.17
2022-10-02T07:02:59.350Z,12.30
2022-10-02T07:05:52.066Z,14.93
2022-10-02T07:08:27.514Z,15.63
2022-10-02T07:11:04.878Z,17.57
2022-10-02T07:14:07.536Z,16.77
2022-10-02T07:17:05.240Z,15.53
2022-10-02T07:20:15.273Z,17.07
2022-10-02T07:23:00.316Z,14.30
2022-10-02T07:25:45.158Z,16.87
2022-10-02T07:28:24.921Z,15.93
2022-10-02T07:31:00.581Z,13.97
2022-10-02T07:33:48.369Z,15.33
2022-10-02T07:36:26.762Z,13.37
2022-10-02T07:39:09.099Z,12.57
2022-10-02T07:41:57.724Z,16.60
2022-10-02T07:44:55.722Z,11.50
2022-10-02T07:47:38.430Z,12.37
2022-10-02T07:50:13.428Z,16.90
2022-10-02T07:52:51.678Z,15.20
2022-10-02T07:55:22.111Z,12.03
2022-10-02T07:58:01.535Z,14.70
2022-10-02T08:00:35.822Z,17.37
2022-10-02T08:03:08.639Z,12.37
2022-10-02T08:05:42.484Z,12.77
2022-10-02T08:08:17.563Z,13.17
2022-10-02T08:10:50.719Z,12.53
2022-10-02T08:13:22.079Z,15.57
2022-10-02T08:15:57.251Z,16.13
2022-10-02T08:18:35.131Z,13.10
2022-10-02T08:21:06.475Z,10.97
2022-10-02T08:23:40.208Z,14.00
2022-10-02T08:26:13.743Z,14.30
2022-10-02T08:28:47.508Z,10.88
2022-10-02T08:31:17.102Z,13.20
2022-10-02T08:33:45.416Z,11.45
2022-10-02T08:36:37.232Z,11.85
2022-10-02T08:39:18.042Z,14.00
2022-10-02T08:42:26.055Z,9.50
2022-10-02T08:45:26.219Z,12.48
2022-10-02T08:48:27.340Z,11.40
2022-10-02T08:51:29.757Z,8.43
2022-10-02T08:54:22.830Z,12.63
2022-10-02T08:57:13.274Z,8.98
2022-10-02T09:00:11.086Z,9.05
2022-10-02T09:03:34.542Z,13.73
2022-10-02T09:06:31.597Z,9.23
2022-10-02T09:09:42.532Z,10.73
2022-10-02T09:13:01.668Z,9.52
2022-10-02T09:15:45.035Z,8.68
2022-10-02T09:18:34.393Z,10.15
2022-10-02T09:21:18.690Z,8.50
2022-10-02T09:24:36.012Z,10.10
2022-10-02T09:27:45.472Z,7.78
2022-10-02T09:30:28.266Z,7.10
2022-10-02T09:33:34.703Z,6.82
2022-10-02T09:36:47.819Z,9.93
2022-10-02T09:39:44.890Z,8.00
2022-10-02T09:42:45.566Z,8.35
2022-10-02T09:46:00.166Z,6.32
2022-10-02T09:49:00.706Z,7.25
2022-10-02T09:51:56.336Z,7.00
2022-10-02T09:54:56.467Z,6.20
2022-10-02T09:58:03.509Z,7.90
2022-10-02T10:01:02.307Z,7.20
2022-10-02T10:04:02.131Z,8.50
2022-10-02T10:10:39.112Z,6.22
2022-10-02T10:13:36.842Z,7.05
2022-10-02T10:16:59.069Z,8.00
2022-10-02T10:20:00.296Z,7.63
2022-10-02T10:22:57.577Z,7.50
2022-10-02T10:25:51.677Z,7.80
2022-10-02T10:28:48.849Z,5.68
2022-10-02T10:31:48.664Z,8.13
2022-10-02T10:34:47.960Z,6.38
2022-10-02T10:38:00.232Z,9.45
2022-10-02T10:40:43.838Z,8.93
2022-10-02T10:43:42.048Z,6.18
2022-10-02T10:46:42.221Z,8.93
2022-10-02T10:49:35.310Z,8.93
2022-10-02T10:52:16.148Z,10.13
2022-10-02T10:54:57.029Z,10.70
2022-10-02T10:57:52.042Z,7.40
2022-10-02T11:00:25.832Z,7.07
2022-10-02T11:03:41.990Z,8.27
2022-10-02T11:06:34.129Z,7.70
2022-10-02T11:09:44.431Z,7.22
2022-10-02T11:12:45.446Z,9.80
2022-10-02T11:15:31.992Z,8.25
2022-10-02T11:18:17.125Z,9.65
2022-10-02T11:21:06.157Z,11.57
2022-10-02T11:23:54.642Z,10.52
2022-10-02T11:26:40.576Z,11.40
2022-10-02T11:29:37.680Z,10.48
2022-10-02T11:32:28.070Z,11.02
2022-10-02T11:35:11.798Z,10.90
2022-10-02T11:37:51.347Z,13.02
2022-10-02T11:40:34.161Z,15.27
2022-10-02T11:43:31.799Z,12.27
2022-10-02T11:46:28.971Z,14.80
2022-10-02T11:49:13.110Z,15.23
2022-10-02T11:52:04.297Z,15.25
2022-10-02T11:54:54.678Z,13.30
2022-10-02T11:57:32.194Z,15.95
2022-10-02T12:00:19.664Z,13.85
2022-10-02T12:03:00.009Z,15.07
2022-10-02T12:05:51.712Z,15.23
2022-10-02T12:08:30.298Z,14.07
2022-10-02T12:11:06.948Z,16.40
2022-10-02T12:14:01.239Z,20.42
2022-10-02T12:16:42.875Z,19.05
2022-10-02T12:19:28.462Z,18.63
2022-10-02T12:22:31.823Z,18.70
2022-10-02T12:25:34.945Z,17.88
2022-10-02T12:28:13.622Z,15.38
2022-10-02T12:30:47.757Z,17.02
2022-10-02T12:33:34.487Z,16.08
2022-10-02T12:36:34.308Z,18.73
2022-10-02T12:39:18.806Z,19.05
2022-10-02T12:42:04.842Z,18.20
2022-10-02T12:45:11.704Z,14.77
2022-10-02T12:48:09.125Z,17.92
2022-10-02T12:50:55.009Z,15.52
2022-10-02T12:54:07.602Z,15.52
2022-10-02T12:57:36.650Z,19.85
2022-10-02T13:00:14.540Z,20.30
2022-10-02T13:03:20.320Z,20.00
2022-10-02T13:06:22.426Z,18.23
2022-10-02T13:09:08.997Z,17.85
2022-10-02T13:11:54.950Z,17.75
2022-10-02T13:14:44.002Z,17.67
2022-10-02T13:17:29.871Z,17.30
2022-10-02T13:20:13.270Z,20.17
2022-10-02T13:22:51.020Z,19.75
2022-10-02T13:25:46.054Z,20.85
2022-10-02T13:28:33.596Z,22.35
2022-10-02T13:31:12.469Z,19.40
2022-10-02T13:34:05.543Z,19.70
2022-10-02T13:36:51.170Z,17.92
2022-10-02T13:39:30.767Z,16.15
2022-10-02T13:42:18.193Z,16.75
2022-10-02T13:44:53.830Z,18.17
2022-10-02T13:47:38.893Z,19.23
2022-10-02T13:50:24.636Z,23.33
2022-10-02T13:53:19.858Z,16.83
2022-10-02T13:55:54.018Z,19.85
2022-10-02T13:58:55.725Z,18.63
2022-10-02T14:01:36.038Z,18.10
2022-10-02T14:04:30.595Z,20.77
2022-10-02T14:07:11.051Z,22.52
2022-10-02T14:09:51.112Z,17.77
2022-10-02T14:12:28.821Z,19.08
2022-10-02T14:15:21.053Z,17.63
2022-10-02T14:18:13.930Z,19.08
2022-10-02T14:20:52.335Z,18.20
2022-10-02T14:23:45.539Z,20.70
2022-10-02T14:26:21.293Z,17.02
2022-10-02T14:29:11.202Z,16.48
2022-10-02T14:32:17.355Z,16.05
2022-10-02T14:35:21.857Z,19.30
2022-10-02T14:38:17.698Z,18.50
2022-10-02T14:40:53.042Z,17.38
2022-10-02T14:43:55.487Z,17.98
2022-10-02T14:46:44.486Z,18.35
2022-10-02T14:49:35.238Z,15.90
2022-10-02T14:52:19.754Z,14.93
2022-10-02T14:55:20.380Z,14.85
2022-10-02T14:58:09.210Z,15.70
2022-10-02T15:00:45.313Z,14.43
2022-10-02T15:03:34.624Z,14.30
2022-10-02T15:06:21.870Z,12.52
2022-10-02T15:08:54.635Z,12.10
2022-10-02T15:11:31.172Z,13.60
2022-10-02T15:14:04.675Z,12.82
2022-10-02T15:17:00.017Z,12.15
2022-10-02T15:19:33.683Z,15.10
2022-10-02T15:22:08.448Z,11.90
2022-10-02T15:24:46.546Z,12.70
2022-10-02T15:27:24.330Z,13.32
2022-10-02T15:30:15.320Z,14.18
2022-10-02T15:33:07.532Z,12.02
2022-10-02T15:35:55.287Z,9.90
2022-10-02T15:39:05.085Z,12.25
2022-10-02T15:41:41.566Z,10.75
2022-10-02T15:44:24.997Z,8.45
2022-10-02T15:46:58.657Z,10.77
2022-10-02T15:49:57.393Z,9.88
2022-10-02T15:52:35.796Z,9.60
2022-10-02T15:55:19.903Z,8.55
2022-10-02T15:58:09.442Z,8.75
2022-10-02T16:01:01.801Z,9.85
2022-10-02T16:03:39.948Z,8.40
2022-10-02T16:06:13.947Z,7.95
2022-10-02T16:09:11.783Z,8.55
2022-10-02T16:12:18.616Z,9.27
2022-10-02T16:14:58.864Z,9.45
2022-10-02T16:17:52.280Z,9.05
2022-10-02T16:20:56.136Z,8.80
2022-10-02T16:23:42.472Z,7.95
2022-10-02T16:26:20.491Z,8.35
2022-10-02T16:28:57.645Z,6.95
2022-10-02T16:31:41.162Z,9.23
2022-10-02T16:34:25.425Z,8.77
2022-10-02T16:36:55.297Z,8.18
2022-10-02T16:39:42.317Z,8.30
2022-10-02T16:42:42.971Z,7.40
2022-10-02T16:45:31.518Z,7.45
2022-10-02T16:48:08.906Z,7.82
2022-10-02T16:51:04.806Z,7.25
2022-10-02T16:53:37.863Z,8.80
2022-10-02T16:56:13.194Z,8.63
2022-10-02T16:58:49.195Z,7.45
2022-10-02T17:01:25.938Z,7.32
2022-10-02T17:04:22.155Z,7.35
2022-10-02T17:06:58.196Z,9.07
2022-10-02T17:09:33.324Z,7.00
2022-10-02T17:12:11.123Z,6.97
2022-10-02T17:14:46.647Z,7.35
2022-10-02T17:17:23.458Z,8.48
2022-10-02T17:19:55.282Z,6.78
2022-10-02T17:22:33.618Z,7.72
2022-10-02T17:25:17.240Z,9.23
2022-10-02T17:27:53.582Z,10.23
2022-10-02T17:30:27.040Z,10.35
2022-10-02T17:33:13.102Z,8.70
2022-10-02T17:35:49.683Z,8.75
2022-10-02T17:38:37.870Z,7.78
2022-10-02T17:41:16.751Z,8.20
2022-10-02T17:43:58.621Z,9.90
2022-10-02T17:46:55.993Z,8.60
2022-10-02T17:49:32.758Z,11.25
2022-10-02T17:52:30.732Z,8.60
2022-10-02T17:55:32.850Z,8.07
2022-10-02T17:58:13.142Z,7.63
2022-10-02T18:00:53.961Z,9.38
2022-10-02T18:03:36.792Z,7.25
2022-10-02T18:06:15.832Z,8.52
2022-10-02T18:09:04.907Z,8.27
2022-10-02T18:12:03.967Z,8.15
2022-10-02T18:15:09.934Z,6.68
2022-10-02T18:17:47.995Z,7.50
2022-10-02T18:20:25.875Z,9.48
2022-10-02T18:23:10.516Z,8.88
2022-10-02T18:25:50.812Z,8.55
2022-10-02T18:28:42.846Z,9.57
2022-10-02T18:31:44.309Z,8.27
2022-10-02T18:34:43.516Z,11.38
2022-10-02T18:37:35.870Z,9.85
2022-10-02T18:40:17.519Z,8.57
2022-10-02T18:43:00.726Z,9.18
2022-10-02T18:45:44.201Z,9.35
2022-10-02T18:48:32.326Z,9.65
2022-10-02T18:51:19.905Z,8.52
2022-10-02T18:54:01.249Z,8.10
2022-10-02T18:56:51.874Z,9.43
2022-10-02T18:59:30.253Z,10.70
2022-10-02T19:02:14.366Z,9.15
2022-10-02T19:05:10.188Z,8.18
2022-10-02T19:07:42.058Z,7.70
2022-10-02T19:10:29.639Z,9.55
2022-10-02T19:13:02.947Z,9.20
2022-10-02T19:15:33.183Z,8.73
2022-10-02T19:18:05.371Z,10.85
2022-10-02T19:20:43.598Z,11.93
2022-10-02T19:23:22.378Z,9.90
2022-10-02T19:25:52.502Z,8.95
2022-10-02T19:28:25.530Z,8.48
2022-10-02T19:30:56.673Z,7.93
2022-10-02T19:33:36.227Z,8.90
2022-10-02T19:36:06.638Z,10.48
2022-10-02T19:38:38.048Z,13.70
2022-10-02T19:41:11.452Z,9.88
2022-10-02T19:43:48.241Z,10.63
2022-10-02T19:46:19.914Z,10.80
2022-10-02T19:48:57.029Z,11.50
2022-10-02T19:51:26.147Z,11.70
2022-10-02T19:53:58.957Z,8.88
2022-10-02T19:56:33.083Z,9.75
2022-10-02T19:59:05.830Z,11.10
2022-10-02T20:01:42.093Z,15.13
2022-10-02T20:04:18.749Z,13.32
2022-10-02T20:06:52.413Z,13.27
2022-10-02T20:09:26.025Z,13.10
2022-10-02T20:12:01.124Z,12.75
2022-10-02T20:14:36.691Z,12.20
2022-10-02T20:17:10.004Z,12.60
2022-10-02T20:19:45.535Z,13.45
2022-10-02T20:22:30.147Z,16.63
2022-10-02T20:25:03.657Z,16.50
2022-10-02T20:27:42.323Z,18.55
2022-10-02T20:30:15.408Z,17.90
2022-10-02T20:32:48.820Z,19.90
2022-10-02T20:35:22.832Z,16.08
2022-10-02T20:37:54.091Z,19.88
2022-10-02T20:40:26.791Z,18.70
2022-10-02T20:43:01.141Z,18.02
2022-10-02T20:45:36.567Z,18.35
2022-10-02T20:49:06.506Z,15.75
2022-10-02T20:51:54.524Z,13.65
2022-10-02T20:54:36.520Z,16.85
2022-10-02T20:57:56.393Z,13.50
2022-10-02T21:00:23.333Z,16.38
2022-10-02T21:03:22.548Z,16.33
2022-10-02T21:06:41.116Z,20.35
2022-10-02T21:09:57.666Z,18.00
2022-10-02T21:13:10.927Z,19.48
2022-10-02T21:15:55.364Z,20.38
2022-10-02T21:19:03.872Z,23.30
2022-10-02T21:22:18.472Z,25.02
2022-10-02T21:25:18.305Z,26.02
2022-10-02T21:28:29.151Z,28.02
2022-10-02T21:31:11.565Z,28.10
2022-10-02T21:33:41.912Z,24.40
2022-10-02T21:36:17.222Z,21.13
2022-10-02T21:39:52.809Z,24.10
2022-10-02T21:42:53.290Z,25.35
2022-10-02T21:45:41.297Z,28.08
2022-10-02T21:48:41.487Z,24.90
2022-10-02T21:51:56.231Z,24.58
2022-10-02T21:54:55.054Z,23.30
2022-10-02T21:58:07.889Z,21.30
2022-10-02T22:00:46.422Z,17.52
2022-10-02T22:03:52.756Z,20.90
2022-10-02T22:06:44.865Z,19.85
2022-10-02T22:09:44.671Z,20.30
2022-10-02T22:12:28.143Z,21.08
2022-10-02T22:15:10.764Z,22.77
2022-10-02T22:17:49.166Z,21.95
2022-10-02T22:20:40.742Z,20.83
2022-10-02T22:23:26.504Z,22.48
2022-10-02T22:26:06.222Z,23.77
2022-10-02T22:28:45.650Z,22.35
2022-10-02T22:31:48.147Z,21.83
2022-10-02T22:34:34.110Z,19.55
2022-10-02T22:37:20.421Z,22.67
2022-10-02T22:39:54.198Z,24.83
2022-10-02T22:42:26.885Z,28.17
2022-10-02T22:45:01.646Z,31.13
2022-10-02T22:47:36.426Z,27.33
2022-10-02T22:50:09.694Z,29.48
2022-10-02T22:52:50.261Z,25.30
2022-10-02T22:55:23.237Z,24.00
2022-10-02T22:57:58.334Z,22.98
2022-10-02T23:00:31.652Z,24.77
2022-10-02T23:03:08.919Z,27.55
2022-10-02T23:05:42.525Z,23.10
2022-10-02T23:08:19.320Z,23.10
2022-10-02T23:10:51.533Z,22.13
2022-10-02T23:13:27.486Z,25.35
2022-10-02T23:16:02.382Z,25.27
2022-10-02T23:18:41.287Z,28.38
2022-10-02T23:21:23.894Z,27.50
2022-10-02T23:23:58.838Z,30.15
2022-10-02T23:26:33.366Z,28.10
2022-10-02T23:29:15.970Z,29.30
2022-10-02T23:31:54.761Z,28.27
2022-10-02T23:34:35.974Z,31.67
2022-10-02T23:37:13.685Z,33.25
2022-10-02T23:39:48.490Z,33.63
2022-10-02T23:42:22.829Z,34.05
2022-10-02T23:44:58.626Z,41.00
2022-10-02T23:47:34.776Z,40.70
2022-10-02T23:50:10.183Z,41.40
2022-10-02T23:53:02.660Z,38.25
2022-10-02T23:56:00.471Z,38.83
2022-10-02T23:58:52.189Z,41.30
